Time;durP1;ratioP1;P1;durP2;ratioP2;P2;SDS_P1;SDS_P2;PMS_P1;PMS_P2;Temp;Humidity;BMP_temperature;BMP_pressure;BME280_temperature;BME280_humidity;BME280_pressure;Samples;Min_cycle;Max_cycle;Signal;HPM_P1;HPM_P2
2023/08/05 00:09:40;;;;;;;4.67;3.10;;;19.20;99.00;;;;;;21021728;28;20603;-83
2023/08/05 00:19:43;;;;;;;5.10;3.00;;;19.10;99.00;;;;;;21082055;28;20241;-82
2023/08/05 00:29:48;;;;;;;7.87;2.87;;;19.10;99.00;;;;;;21090609;28;20244;-87
2023/08/05 00:39:50;;;;;;;3.00;2.70;;;19.10;98.90;;;;;;21088546;28;20379;-86
2023/08/05 00:49:53;;;;;;;4.07;3.40;;;19.00;98.90;;;;;;21088037;28;20324;-79
2023/08/05 00:59:55;;;;;;;11.27;3.07;;;19.00;98.90;;;;;;21087058;28;20568;-74
2023/08/05 01:09:56;;;;;;;4.00;3.10;;;18.80;99.20;;;;;;21085613;28;20242;-75
2023/08/05 01:20:00;;;;;;;5.93;3.10;;;18.80;99.30;;;;;;21034239;28;20212;-74
2023/08/05 01:30:03;;;;;;;4.43;3.20;;;18.70;99.30;;;;;;21000886;28;20322;-75
2023/08/05 01:40:05;;;;;;;3.27;2.97;;;18.60;99.40;;;;;;20999969;28;20735;-74
2023/08/05 01:50:07;;;;;;;4.30;3.03;;;18.60;99.40;;;;;;20999222;28;20264;-74
2023/08/05 02:00:09;;;;;;;3.93;3.20;;;18.60;99.40;;;;;;20998010;28;20210;-74
2023/08/05 02:10:11;;;;;;;4.27;3.43;;;18.50;99.40;;;;;;20997243;28;20326;-81
2023/08/05 02:20:13;;;;;;;7.00;3.30;;;18.50;99.50;;;;;;21013782;28;20341;-75
2023/08/05 02:30:14;;;;;;;4.23;3.27;;;18.40;99.50;;;;;;21037978;28;20330;-83
2023/08/05 02:40:16;;;;;;;4.23;2.97;;;18.40;99.60;;;;;;21080372;28;20247;-74
2023/08/05 02:50:18;;;;;;;3.83;2.83;;;18.30;99.80;;;;;;21079388;28;20316;-75
2023/08/05 03:00:20;;;;;;;7.03;3.60;;;18.30;99.80;;;;;;21078585;28;20303;-73
2023/08/05 03:10:21;;;;;;;4.90;2.80;;;18.10;99.90;;;;;;21078118;28;20290;-75
2023/08/05 03:20:29;;;;;;;3.70;3.27;;;18.00;99.90;;;;;;21078299;28;20255;-73
2023/08/05 03:30:31;;;;;;;5.97;2.77;;;17.90;99.90;;;;;;21067499;28;20321;-77
2023/08/05 03:40:33;;;;;;;8.33;2.93;;;17.90;99.90;;;;;;21004598;28;20208;-74
2023/08/05 03:50:34;;;;;;;5.80;2.87;;;17.80;99.90;;;;;;21008532;28;20275;-74
2023/08/05 04:00:41;;;;;;;6.97;3.53;;;17.70;99.90;;;;;;21008053;28;20635;-86
2023/08/05 04:10:42;;;;;;;4.47;4.07;;;17.70;99.90;;;;;;21008231;28;20479;-86
2023/08/05 04:20:46;;;;;;;5.97;3.43;;;17.50;99.90;;;;;;21006861;28;20214;-74
2023/08/05 04:30:48;;;;;;;6.90;3.60;;;17.40;99.90;;;;;;21005552;28;20754;-74
2023/08/05 04:40:50;;;;;;;3.63;2.93;;;17.50;99.90;;;;;;21015784;28;20215;-75
2023/08/05 04:50:52;;;;;;;4.63;3.20;;;17.50;99.90;;;;;;21015688;28;20243;-74
2023/08/05 05:00:57;;;;;;;4.47;3.37;;;17.50;99.90;;;;;;21002034;28;20290;-77
2023/08/05 05:10:59;;;;;;;5.20;2.60;;;17.60;99.90;;;;;;21001985;28;20263;-73
2023/08/05 05:21:00;;;;;;;3.50;3.20;;;17.70;99.90;;;;;;21000722;28;20286;-72
2023/08/05 05:31:03;;;;;;;5.63;3.43;;;17.70;99.90;;;;;;21000458;28;20232;-74
2023/08/05 05:41:05;;;;;;;5.30;2.80;;;17.60;99.90;;;;;;21025970;28;20695;-75
2023/08/05 05:51:07;;;;;;;3.50;3.20;;;17.60;99.90;;;;;;21039823;28;20733;-74
2023/08/05 06:01:08;;;;;;;3.10;2.50;;;17.70;99.90;;;;;;21046743;28;20208;-80
2023/08/05 06:11:10;;;;;;;3.67;2.60;;;17.80;99.90;;;;;;21033198;28;20249;-80
2023/08/05 06:21:13;;;;;;;7.33;2.80;;;17.90;99.90;;;;;;21030391;28;20659;-79
2023/08/05 06:31:15;;;;;;;5.43;3.03;;;18.10;99.90;;;;;;21043831;28;20247;-76
2023/08/05 06:41:16;;;;;;;9.50;2.53;;;18.50;99.90;;;;;;21059185;28;20217;-78
2023/08/05 06:51:27;;;;;;;2.77;2.20;;;18.70;99.50;;;;;;21046713;28;20233;-78
2023/08/05 07:01:32;;;;;;;1.93;1.83;;;19.00;99.10;;;;;;21041321;28;20296;-80
2023/08/05 07:11:35;;;;;;;3.13;1.73;;;19.10;98.80;;;;;;21016178;28;20287;-79
2023/08/05 07:21:37;;;;;;;3.27;1.70;;;19.40;98.30;;;;;;21040510;28;20215;-78
2023/08/05 07:31:42;;;;;;;3.20;1.87;;;19.60;97.80;;;;;;21026094;28;20752;-79
2023/08/05 07:41:44;;;;;;;1.70;1.50;;;19.80;97.10;;;;;;21009110;28;20548;-74
2023/08/05 07:51:50;;;;;;;1.97;1.60;;;19.90;96.30;;;;;;21149185;28;20268;-75
2023/08/05 08:01:54;;;;;;;3.70;2.10;;;20.00;95.80;;;;;;21058225;28;20606;-77
2023/08/05 08:11:56;;;;;;;1.93;1.60;;;20.30;95.10;;;;;;21027341;28;20602;-74
2023/08/05 08:21:57;;;;;;;3.23;2.20;;;20.40;94.60;;;;;;21019196;28;20294;-73
2023/08/05 08:31:59;;;;;;;2.30;1.77;;;20.50;94.00;;;;;;21044483;28;20253;-74
2023/08/05 08:42:01;;;;;;;3.80;1.83;;;20.80;93.10;;;;;;21038335;28;20664;-73
2023/08/05 08:52:06;;;;;;;12.53;9.00;;;20.90;91.80;;;;;;21039833;28;20722;-72
2023/08/05 09:02:12;;;;;;;2.83;1.67;;;21.20;91.10;;;;;;21044987;28;20717;-72
2023/08/05 09:12:15;;;;;;;1.40;1.30;;;21.40;90.10;;;;;;21086884;28;20690;-72
2023/08/05 09:22:16;;;;;;;1.30;1.20;;;21.60;88.50;;;;;;21149821;28;20646;-73
2023/08/05 09:32:18;;;;;;;3.10;1.20;;;22.10;85.20;;;;;;21084304;28;20232;-75
2023/08/05 09:42:37;;;;;;;2.67;2.13;;;22.40;82.10;;;;;;21112986;28;20194;-74
2023/08/05 09:52:40;;;;;;;1.50;1.20;;;22.60;78.50;;;;;;21167303;28;20229;-74
2023/08/05 10:02:45;;;;;;;6.03;3.70;;;22.30;75.80;;;;;;21166222;28;20212;-75
2023/08/05 10:12:57;;;;;;;6.20;5.57;;;21.90;75.10;;;;;;21164210;28;20249;-79
2023/08/05 10:23:05;;;;;;;2.93;2.30;;;22.00;74.80;;;;;;21080204;28;20327;-76
2023/08/05 10:33:06;;;;;;;2.17;1.63;;;22.70;72.30;;;;;;21080323;28;20330;-70
2023/08/05 10:43:10;;;;;;;4.43;2.03;;;22.90;69.80;;;;;;21079514;28;20233;-76
2023/08/05 10:53:12;;;;;;;4.83;2.20;;;23.10;69.10;;;;;;21076349;28;20257;-70
2023/08/05 11:03:28;;;;;;;4.27;1.83;;;23.00;69.20;;;;;;21079005;28;20666;-67
2023/08/05 11:13:49;;;;;;;2.17;1.60;;;22.80;69.50;;;;;;21055518;28;20248;-72
2023/08/05 11:23:51;;;;;;;1.77;1.30;;;23.00;68.70;;;;;;20994265;28;20607;-71
2023/08/05 11:33:54;;;;;;;1.73;1.30;;;23.30;68.00;;;;;;20994675;28;20329;-71
2023/08/05 11:43:56;;;;;;;2.73;1.30;;;23.70;67.20;;;;;;20994190;28;20544;-72
2023/08/05 11:54:00;;;;;;;1.53;1.43;;;24.00;66.80;;;;;;20993135;28;20241;-73
2023/08/05 12:04:07;;;;;;;2.17;1.40;;;23.60;67.30;;;;;;21012159;28;20290;-73
2023/08/05 12:14:12;;;;;;;4.40;2.40;;;23.20;68.80;;;;;;21007547;28;20728;-73
2023/08/05 12:24:13;;;;;;;2.03;1.53;;;23.00;67.60;;;;;;21006849;28;20226;-72
2023/08/05 12:34:17;;;;;;;3.80;2.83;;;23.00;67.80;;;;;;21005847;28;20728;-72
2023/08/05 12:44:19;;;;;;;2.70;1.97;;;23.10;67.40;;;;;;21004860;28;20712;-70
2023/08/05 12:54:21;;;;;;;3.93;1.90;;;23.60;66.00;;;;;;21019645;28;20405;-71
2023/08/05 13:04:23;;;;;;;1.50;1.40;;;23.80;64.30;;;;;;21003896;28;20302;-71
2023/08/05 13:14:25;;;;;;;2.40;1.67;;;23.80;64.70;;;;;;21001789;28;20242;-70
2023/08/05 13:24:27;;;;;;;2.20;1.70;;;23.90;64.60;;;;;;21022549;28;20235;-70
2023/08/05 13:34:28;;;;;;;1.83;1.50;;;23.70;64.40;;;;;;21084663;28;20270;-71
2023/08/05 13:44:30;;;;;;;4.37;1.70;;;23.50;63.70;;;;;;21083638;28;20199;-73
2023/08/05 13:54:32;;;;;;;1.70;1.60;;;23.40;63.40;;;;;;21081840;28;20253;-75
2023/08/05 14:04:34;;;;;;;2.17;1.70;;;23.20;63.30;;;;;;21082884;28;20313;-76
2023/08/05 14:14:35;;;;;;;2.37;1.70;;;23.30;63.10;;;;;;21081661;28;20238;-71
2023/08/05 14:24:37;;;;;;;1.60;1.50;;;23.50;62.60;;;;;;21080171;28;20261;-70
2023/08/05 14:34:39;;;;;;;2.87;1.60;;;23.50;62.50;;;;;;21080231;28;20684;-72
2023/08/05 14:44:41;;;;;;;1.90;1.67;;;23.40;62.30;;;;;;21079272;28;20293;-72
2023/08/05 14:54:43;;;;;;;2.23;1.73;;;23.60;62.20;;;;;;21078785;28;20242;-72
2023/08/05 15:04:45;;;;;;;2.65;1.70;;;;;;;;;;21078651;28;20326;-72
2023/08/05 15:14:47;;;;;;;3.03;1.63;;;23.90;61.80;;;;;;21054677;28;20249;-73
2023/08/05 15:24:49;;;;;;;2.35;1.42;;;26.70;57.70;;;;;;21027987;28;20298;-70
2023/08/05 15:34:50;;;;;;;2.70;1.50;;;26.40;56.30;;;;;;20994311;28;20767;-71
2023/08/05 15:44:52;;;;;;;1.53;1.43;;;25.40;57.80;;;;;;21006207;28;20294;-70
2023/08/05 15:54:54;;;;;;;1.73;1.40;;;25.10;57.90;;;;;;21008679;28;20270;-70
2023/08/05 16:04:56;;;;;;;2.13;1.50;;;24.90;58.00;;;;;;21007862;28;20270;-70
2023/08/05 16:14:58;;;;;;;1.87;1.40;;;24.50;58.20;;;;;;21007167;28;20605;-70
2023/08/05 16:24:59;;;;;;;1.50;1.40;;;25.00;57.40;;;;;;21006339;28;20290;-70
2023/08/05 16:35:01;;;;;;;1.33;1.23;;;24.80;57.00;;;;;;21005926;28;20266;-74
2023/08/05 16:45:04;;;;;;;1.87;1.53;;;24.50;57.00;;;;;;21005001;28;20609;-73
2023/08/05 16:55:06;;;;;;;2.10;1.50;;;23.90;57.00;;;;;;21004331;28;20730;-73
2023/08/05 17:05:08;;;;;;;2.77;1.70;;;23.70;57.40;;;;;;21018836;28;20326;-74
2023/08/05 17:15:10;;;;;;;1.80;1.60;;;23.40;57.80;;;;;;21002037;28;20250;-74
2023/08/05 17:25:12;;;;;;;2.40;1.90;;;23.20;58.50;;;;;;21001279;28;20249;-74
2023/08/05 17:35:14;;;;;;;2.60;2.00;;;23.20;59.00;;;;;;21015643;28;20888;-71
2023/08/05 17:45:17;;;;;;;4.33;2.17;;;23.00;59.80;;;;;;21029507;28;20217;-70
2023/08/05 17:55:19;;;;;;;5.03;1.90;;;22.70;60.80;;;;;;21014981;28;20242;-71
2023/08/05 18:05:22;;;;;;;4.43;2.30;;;22.50;61.90;;;;;;20987101;28;20283;-71
2023/08/05 18:15:23;;;;;;;4.87;2.33;;;22.40;63.70;;;;;;20993884;28;20238;-73
2023/08/05 18:25:25;;;;;;;2.43;2.17;;;22.20;65.70;;;;;;21066730;28;20206;-72
2023/08/05 18:35:27;;;;;;;2.93;2.37;;;22.10;66.60;;;;;;20997753;28;20782;-73
2023/08/05 18:45:32;;;;;;;3.80;2.30;;;22.00;66.80;;;;;;20991316;28;20207;-72
2023/08/05 18:55:35;;;;;;;3.27;2.00;;;21.60;68.40;;;;;;20994742;28;20634;-72
2023/08/05 19:05:37;;;;;;;2.53;2.20;;;21.40;69.50;;;;;;21007475;28;20237;-71
2023/08/05 19:15:38;;;;;;;3.77;2.30;;;21.20;70.70;;;;;;21084230;28;20234;-70
2023/08/05 19:25:40;;;;;;;4.80;2.33;;;21.00;72.70;;;;;;21063918;28;20214;-74
2023/08/05 19:35:42;;;;;;;5.30;3.27;;;20.80;74.80;;;;;;21053805;28;20321;-72
2023/08/05 19:45:45;;;;;;;5.40;4.07;;;20.50;76.70;;;;;;21051416;28;20669;-75
2023/08/05 19:55:47;;;;;;;4.13;2.30;;;20.40;79.20;;;;;;21042366;28;20397;-74
2023/08/05 20:05:50;;;;;;;3.20;2.50;;;20.00;82.40;;;;;;21044101;28;20234;-73
2023/08/05 20:15:58;;;;;;;6.30;2.50;;;19.80;84.40;;;;;;21044053;28;20242;-74
2023/08/05 20:26:09;;;;;;;2.70;2.40;;;19.70;86.00;;;;;;21042350;28;20264;-74
2023/08/05 20:36:11;;;;;;;2.60;2.30;;;19.50;88.40;;;;;;21034626;28;20600;-74
2023/08/05 20:46:13;;;;;;;3.73;2.30;;;19.40;90.20;;;;;;21042659;28;20646;-73
2023/08/05 20:56:15;;;;;;;5.97;3.10;;;19.40;91.10;;;;;;21035179;28;20230;-70
2023/08/05 21:06:17;;;;;;;2.80;2.50;;;19.40;91.70;;;;;;20996760;28;1030727;-69
2023/08/05 21:16:18;;;;;;;2.47;2.20;;;19.30;92.30;;;;;;21024183;28;20235;-69
2023/08/05 21:26:20;;;;;;;3.40;2.27;;;19.20;92.80;;;;;;21015768;28;20253;-69
2023/08/05 21:36:22;;;;;;;3.27;2.40;;;19.20;93.10;;;;;;21009920;28;20242;-69
2023/08/05 21:46:24;;;;;;;3.93;2.70;;;18.90;93.80;;;;;;21000222;28;20211;-69
2023/08/05 21:56:26;;;;;;;2.83;2.63;;;18.70;94.80;;;;;;20998749;28;20242;-70
2023/08/05 22:06:27;;;;;;;3.97;3.10;;;18.60;95.70;;;;;;20997962;28;20258;-69
2023/08/05 22:16:33;;;;;;;3.23;2.80;;;18.60;96.50;;;;;;20997718;28;20238;-70
2023/08/05 22:26:34;;;;;;;3.77;2.97;;;18.70;97.20;;;;;;20996986;28;20290;-69
2023/08/05 22:36:36;;;;;;;5.33;2.90;;;18.70;97.60;;;;;;20996302;28;20400;-69
2023/08/05 22:46:38;;;;;;;3.83;2.80;;;18.70;97.90;;;;;;20995978;28;20246;-71
2023/08/05 22:56:40;;;;;;;3.87;2.73;;;18.70;98.00;;;;;;20995387;28;20317;-71
2023/08/05 23:06:41;;;;;;;3.30;2.97;;;18.60;98.10;;;;;;20994945;28;20588;-72
2023/08/05 23:16:43;;;;;;;9.13;2.80;;;18.70;98.30;;;;;;20994807;28;20318;-69
2023/08/05 23:26:45;;;;;;;4.57;2.70;;;18.60;98.60;;;;;;20994360;28;20263;-73
2023/08/05 23:36:47;;;;;;;4.53;3.10;;;18.50;99.30;;;;;;20993723;28;20672;-70
2023/08/05 23:46:48;;;;;;;5.20;2.97;;;18.50;99.50;;;;;;20993786;28;20215;-70
2023/08/05 23:56:50;;;;;;;4.37;3.30;;;18.40;99.90;;;;;;20992935;28;20265;-70
